Time;durP1;ratioP1;P1;durP2;ratioP2;P2;SDS_P1;SDS_P2;PMS_P1;PMS_P2;Temp;Humidity;BMP_temperature;BMP_pressure;BME280_temperature;BME280_humidity;BME280_pressure;Samples;Min_cycle;Max_cycle;Signal;HPM_P1;HPM_P2
2023/04/23 00:01:26;;;;;;;26.55;10.93;;;;;;;9.40;56.94;149657.97;5048153;28;20052;-62
2023/04/23 00:03:55;;;;;;;23.10;11.18;;;;;;;9.46;57.58;149673.31;5065750;28;20025;-64
2023/04/23 00:06:22;;;;;;;22.67;11.05;;;;;;;9.45;57.63;149670.78;5045750;28;20032;-62
2023/04/23 00:08:52;;;;;;;20.10;10.45;;;;;;;9.37;57.76;149651.53;5059920;28;20082;-62
2023/04/23 00:11:17;;;;;;;20.65;10.90;;;;;;;9.48;57.00;149678.47;5063889;28;20025;-62
2023/04/23 00:13:45;;;;;;;21.55;10.10;;;;;;;9.45;57.76;149672.06;5065043;28;20035;-65
2023/04/23 00:16:12;;;;;;;21.23;10.60;;;;;;;9.40;57.47;149659.22;5063586;28;20025;-64
2023/04/23 00:18:38;;;;;;;21.60;10.48;;;;;;;9.30;57.20;149634.88;5060641;28;20025;-64
2023/04/23 00:21:03;;;;;;;23.45;11.02;;;;;;;9.26;58.05;149624.66;5046883;28;20025;-62
2023/04/23 00:23:29;;;;;;;22.33;10.32;;;;;;;9.24;58.15;149619.50;5044728;28;20040;-62
2023/04/23 00:25:55;;;;;;;24.83;11.07;;;;;;;9.30;57.73;149633.63;5051183;28;20070;-61
2023/04/23 00:28:21;;;;;;;22.20;10.18;;;;;;;9.27;57.68;149627.19;5063465;28;20052;-63
2023/04/23 00:30:46;;;;;;;21.17;10.88;;;;;;;9.23;57.98;149616.94;5065030;28;20025;-64
2023/04/23 00:33:12;;;;;;;24.90;10.43;;;;;;;9.22;58.32;149614.41;5063281;28;20048;-62
2023/04/23 00:35:38;;;;;;;22.98;10.90;;;;;;;9.15;57.43;149597.75;5047391;28;20088;-63
2023/04/23 00:38:04;;;;;;;21.88;10.13;;;;;;;9.20;57.46;149608.00;5053186;28;20078;-62
2023/04/23 00:40:29;;;;;;;28.15;11.48;;;;;;;9.22;58.27;149613.09;5060663;28;20036;-63
2023/04/23 00:42:57;;;;;;;26.33;10.77;;;;;;;9.07;58.34;149575.97;5044555;28;20088;-63
2023/04/23 00:45:22;;;;;;;16.90;9.88;;;;;;;9.07;58.39;149577.25;5062704;28;20344;-63
2023/04/23 00:47:49;;;;;;;20.70;10.75;;;;;;;9.07;58.18;149575.97;5050010;28;20045;-64
2023/04/23 00:50:14;;;;;;;21.98;10.60;;;;;;;9.03;58.04;149567.00;5052998;28;20331;-62
2023/04/23 00:52:40;;;;;;;26.63;9.82;;;;;;;8.99;58.19;149556.72;5059141;28;20117;-64
2023/04/23 00:55:07;;;;;;;22.85;11.07;;;;;;;9.09;59.31;149581.06;5044498;28;20064;-64
2023/04/23 00:57:35;;;;;;;20.10;10.63;;;;;;;8.97;58.84;149552.91;5064047;28;20020;-63
2023/04/23 01:00:01;;;;;;;20.77;10.13;;;;;;;9.00;59.04;149559.31;5048102;28;20033;-63
2023/04/23 01:02:29;;;;;;;22.23;10.52;;;;;;;8.98;58.39;149554.22;5055881;28;20409;-63
2023/04/23 01:04:57;;;;;;;17.83;9.23;;;;;;;9.00;60.01;149559.31;5057307;28;20029;-63
2023/04/23 01:07:23;;;;;;;23.60;10.65;;;;;;;8.97;59.22;149551.63;5046725;28;20029;-62
2023/04/23 01:09:50;;;;;;;26.20;11.20;;;;;;;9.00;58.76;149559.31;5063869;28;20043;-62
2023/04/23 01:12:16;;;;;;;25.98;10.98;;;;;;;8.95;58.57;149547.78;5045610;28;20029;-64
2023/04/23 01:14:42;;;;;;;16.42;10.23;;;;;;;8.97;58.87;149551.63;5057402;28;20071;-63
2023/04/23 01:17:11;;;;;;;21.02;10.00;;;;;;;8.96;59.66;149549.06;5058567;28;20088;-64
2023/04/23 01:19:37;;;;;;;20.15;10.27;;;;;;;8.86;58.95;149524.72;5059193;28;20040;-62
2023/04/23 01:22:07;;;;;;;28.63;11.07;;;;;;;8.69;60.44;149481.19;5043561;28;20021;-64
2023/04/23 01:24:33;;;;;;;24.10;11.18;;;;;;;8.73;60.41;149492.69;5042366;28;20309;-63
2023/04/23 01:26:58;;;;;;;27.60;10.82;;;;;;;8.72;60.33;149490.19;5059332;28;20028;-64
2023/04/23 01:29:25;;;;;;;21.20;9.73;;;;;;;8.79;59.44;149508.09;5052786;28;20045;-63
2023/04/23 01:31:51;;;;;;;18.98;9.82;;;;;;;8.76;60.71;149500.38;5045651;28;20365;-62
2023/04/23 01:34:17;;;;;;;20.95;10.25;;;;;;;8.80;60.52;149510.63;5049391;28;20091;-63
2023/04/23 01:36:44;;;;;;;25.73;10.10;;;;;;;8.80;60.41;149509.38;5063047;28;20024;-63
2023/04/23 01:39:09;;;;;;;28.75;10.75;;;;;;;8.72;60.79;149488.88;5061840;28;20040;-63
2023/04/23 01:41:36;;;;;;;31.52;11.30;;;;;;;8.62;59.75;149464.53;5043271;28;20025;-62
2023/04/23 01:44:01;;;;;;;25.05;10.10;;;;;;;8.61;60.25;149462.00;5051051;28;20028;-63
2023/04/23 01:46:28;;;;;;;17.30;9.45;;;;;;;8.66;60.16;149473.50;5059400;28;20572;-63
2023/04/23 01:48:53;;;;;;;27.15;10.05;;;;;;;8.66;59.70;149473.50;5043316;28;20037;-62
2023/04/23 01:51:19;;;;;;;22.25;9.93;;;;;;;8.62;60.83;149464.53;5061401;28;20059;-64
2023/04/23 01:53:45;;;;;;;22.20;10.43;;;;;;;8.64;60.27;149469.69;5049871;28;20045;-63
2023/04/23 01:56:10;;;;;;;19.83;9.45;;;;;;;8.66;60.60;149474.78;5051902;28;20029;-62
2023/04/23 01:58:36;;;;;;;20.77;10.27;;;;;;;8.70;60.15;149483.75;5059147;28;20376;-61
2023/04/23 02:01:02;;;;;;;24.95;9.55;;;;;;;8.68;60.60;149479.94;5041962;28;20290;-64
2023/04/23 02:03:29;;;;;;;31.00;9.77;;;;;;;8.63;59.73;149467.09;5062262;28;20087;-62
2023/04/23 02:05:55;;;;;;;17.95;9.65;;;;;;;8.53;60.51;149441.50;5048395;28;20037;-62
2023/04/23 02:08:21;;;;;;;16.95;9.15;;;;;;;8.50;61.24;149433.84;5053213;28;20220;-63
2023/04/23 02:10:47;;;;;;;15.85;9.35;;;;;;;8.52;61.00;149438.94;5057552;28;20109;-62
2023/04/23 02:13:13;;;;;;;22.52;10.02;;;;;;;8.53;59.90;149441.50;5043504;28;20093;-64
2023/04/23 02:15:39;;;;;;;21.98;9.50;;;;;;;8.43;60.14;149418.38;5053536;28;20040;-61
2023/04/23 02:18:05;;;;;;;19.67;9.70;;;;;;;8.46;60.36;149426.16;5054339;28;20025;-61
2023/04/23 02:20:31;;;;;;;16.70;9.00;;;;;;;8.48;61.49;149428.69;5050901;28;20025;-63
2023/04/23 02:22:57;;;;;;;18.30;9.07;;;;;;;8.47;60.49;149427.41;5042554;28;20318;-63
2023/04/23 02:25:22;;;;;;;17.88;9.73;;;;;;;8.48;60.05;149430.00;5044425;28;20308;-63
2023/04/23 02:27:48;;;;;;;18.00;9.35;;;;;;;8.47;61.51;149427.41;5062787;28;20032;-65
2023/04/23 02:30:14;;;;;;;22.90;9.82;;;;;;;8.40;60.77;149409.44;5045302;28;20029;-63
2023/04/23 02:32:41;;;;;;;23.70;10.00;;;;;;;8.45;60.30;149422.28;5045017;28;20021;-62
2023/04/23 02:35:09;;;;;;;15.90;8.90;;;;;;;8.44;59.45;149421.00;5042736;28;20033;-63
2023/04/23 02:37:35;;;;;;;19.88;9.55;;;;;;;8.53;60.61;149441.50;5042404;28;20061;-63
2023/04/23 02:40:02;;;;;;;20.52;10.55;;;;;;;8.50;60.22;149435.09;5042474;28;20029;-63
2023/04/23 02:42:29;;;;;;;17.45;9.52;;;;;;;8.55;60.62;149446.59;5061603;28;20064;-63
2023/04/23 02:44:54;;;;;;;22.17;9.88;;;;;;;8.58;60.41;149454.28;5047871;28;20063;-62
2023/04/23 02:47:20;;;;;;;22.60;9.15;;;;;;;8.63;61.47;149467.09;5051907;28;20064;-62
2023/04/23 02:49:46;;;;;;;20.27;9.85;;;;;;;8.68;60.34;149478.63;5057816;28;20044;-62
2023/04/23 02:52:11;;;;;;;18.33;10.48;;;;;;;8.69;60.93;149482.44;5041233;28;20033;-63
2023/04/23 02:54:37;;;;;;;22.42;9.82;;;;;;;8.74;61.11;149495.28;5062482;28;20075;-64
2023/04/23 02:57:04;;;;;;;24.65;9.95;;;;;;;8.78;60.92;149504.25;5046654;28;20463;-62
2023/04/23 02:59:29;;;;;;;21.13;9.48;;;;;;;8.76;60.15;149500.38;5052817;28;20075;-63
2023/04/23 03:01:55;;;;;;;19.65;9.35;;;;;;;8.89;60.48;149532.44;5056083;28;20025;-63
2023/04/23 03:04:20;;;;;;;19.30;9.20;;;;;;;8.98;60.76;149555.47;5043253;28;20045;-63
2023/04/23 03:06:46;;;;;;;25.63;10.93;;;;;;;9.13;59.84;149592.59;5062013;28;20482;-64
2023/04/23 03:09:12;;;;;;;20.83;9.85;;;;;;;9.34;60.06;149643.88;5045807;28;20036;-63
2023/04/23 03:11:38;;;;;;;24.05;10.25;;;;;;;9.48;58.46;149678.47;5053604;28;20080;-63
2023/04/23 03:14:04;;;;;;;21.45;10.32;;;;;;;9.65;58.72;149720.75;5054880;28;20318;-62
2023/04/23 03:16:30;;;;;;;25.70;10.13;;;;;;;10.19;57.25;149855.34;5044106;28;20022;-63
2023/04/23 03:18:57;;;;;;;21.10;10.20;;;;;;;10.26;57.16;149872.00;5043491;28;20056;-65
2023/04/23 03:21:22;;;;;;;38.22;16.98;;;;;;;10.68;56.77;149977.22;5059836;28;20201;-65
2023/04/23 03:23:48;;;;;;;25.60;11.15;;;;;;;11.03;55.65;150064.41;5048820;28;20093;-64
2023/04/23 03:26:14;;;;;;;24.67;10.27;;;;;;;11.21;55.94;150109.31;5050048;28;20033;-64
2023/04/23 03:28:40;;;;;;;22.05;10.85;;;;;;;11.61;54.46;150208.16;5058321;28;20048;-63
2023/04/23 03:31:06;;;;;;;25.73;11.27;;;;;;;12.01;53.72;150308.31;5043868;28;20065;-63
2023/04/23 03:33:32;;;;;;;29.15;11.18;;;;;;;11.79;54.85;150254.34;5045669;28;20049;-65
2023/04/23 03:35:57;;;;;;;28.58;12.77;;;;;;;11.84;55.41;150267.22;5044657;28;20022;-65
2023/04/23 03:38:23;;;;;;;36.72;12.02;;;;;;;11.92;54.02;150287.72;5045416;28;20029;-63
2023/04/23 03:40:48;;;;;;;32.75;11.60;;;;;;;12.26;54.76;150372.50;5044732;28;20029;-63
2023/04/23 03:43:14;;;;;;;26.60;11.10;;;;;;;12.72;52.53;150486.81;5045217;28;20087;-61
2023/04/23 03:45:39;;;;;;;22.65;9.75;;;;;;;12.94;51.11;150540.78;5050045;28;20036;-63
2023/04/23 03:48:05;;;;;;;23.17;10.30;;;;;;;13.49;50.63;150678.31;5055154;28;20021;-63
2023/04/23 03:50:33;;;;;;;27.13;10.68;;;;;;;13.35;50.51;150643.59;5054851;28;20029;-64
2023/04/23 03:52:59;;;;;;;19.60;9.93;;;;;;;13.23;50.27;150614.00;5058287;28;20041;-62
2023/04/23 03:55:25;;;;;;;21.63;8.90;;;;;;;13.21;48.46;150608.88;5044823;28;20504;-62
2023/04/23 03:57:50;;;;;;;28.83;10.63;;;;;;;13.18;51.22;150599.88;5045221;28;20021;-62
2023/04/23 04:00:16;;;;;;;22.85;10.70;;;;;;;13.16;51.66;150596.03;5061544;28;20028;-62
2023/04/23 04:02:42;;;;;;;22.98;9.98;;;;;;;13.17;51.72;150598.59;5053381;28;20048;-63
2023/04/23 04:05:11;;;;;;;22.30;10.68;;;;;;;13.13;52.30;150589.59;5045463;28;20474;-61
2023/04/23 04:07:37;;;;;;;25.95;9.90;;;;;;;13.18;50.16;150601.19;5048373;28;20041;-63
2023/04/23 04:10:04;;;;;;;23.40;10.73;;;;;;;13.15;51.33;150593.44;5065262;28;20067;-63
2023/04/23 04:12:30;;;;;;;22.77;10.73;;;;;;;13.15;50.27;150593.44;5046367;28;20372;-63
2023/04/23 04:14:56;;;;;;;23.85;11.23;;;;;;;13.06;51.80;150571.59;5058760;28;20029;-63
2023/04/23 04:17:21;;;;;;;23.60;9.98;;;;;;;13.13;49.77;150588.31;5061596;28;20395;-63
2023/04/23 04:19:47;;;;;;;19.50;8.98;;;;;;;13.17;50.21;150598.59;5060804;28;20025;-64
2023/04/23 04:22:13;;;;;;;23.17;10.38;;;;;;;13.25;50.51;150617.84;5044876;28;20021;-66
2023/04/23 04:24:40;;;;;;;22.25;10.80;;;;;;;13.30;48.69;150630.72;5064268;28;20054;-63
2023/04/23 04:27:06;;;;;;;22.52;10.57;;;;;;;13.43;48.00;150662.91;5049746;28;20112;-65
2023/04/23 04:29:32;;;;;;;24.30;11.27;;;;;;;13.63;51.67;150714.28;5055073;28;20266;-64
2023/04/23 04:31:59;;;;;;;23.63;11.18;;;;;;;13.74;49.06;150740.03;5055630;28;20021;-64
2023/04/23 04:34:25;;;;;;;26.20;10.57;;;;;;;13.83;50.33;150761.88;5051449;28;20036;-65
2023/04/23 04:36:52;;;;;;;29.17;10.52;;;;;;;13.92;52.82;150786.31;5064662;28;20040;-65
2023/04/23 04:39:19;;;;;;;18.60;9.02;;;;;;;13.96;47.07;150795.28;5047955;28;20037;-65
2023/04/23 04:41:46;;;;;;;21.13;9.82;;;;;;;13.96;44.74;150796.56;5056652;28;20275;-65
2023/04/23 04:44:13;;;;;;;17.33;10.18;;;;;;;13.90;43.40;150779.88;5056470;28;20036;-63
2023/04/23 04:46:39;;;;;;;22.83;10.13;;;;;;;14.13;44.35;150839.00;5047172;28;20041;-63
2023/04/23 04:49:09;;;;;;;17.00;9.48;;;;;;;14.19;46.51;150853.16;5064470;28;20033;-62
2023/04/23 04:51:36;;;;;;;25.92;9.27;;;;;;;14.30;45.28;150880.16;5045243;28;20087;-64
2023/04/23 04:54:02;;;;;;;37.85;11.32;;;;;;;14.29;47.94;150877.59;5058187;28;20234;-64
2023/04/23 04:56:28;;;;;;;31.08;11.02;;;;;;;14.31;46.68;150884.03;5054529;28;20033;-64
2023/04/23 04:58:54;;;;;;;21.10;10.13;;;;;;;14.45;46.59;150917.44;5047750;28;20032;-65
2023/04/23 05:01:23;;;;;;;21.90;9.80;;;;;;;14.53;46.67;150936.75;5062759;28;20047;-64
2023/04/23 05:03:49;;;;;;;18.83;10.10;;;;;;;14.61;46.66;150958.63;5044273;28;20299;-64
2023/04/23 05:06:14;;;;;;;16.17;9.40;;;;;;;14.70;46.42;150980.53;5072012;28;20124;-64
2023/04/23 05:08:41;;;;;;;16.23;8.52;;;;;;;14.82;44.70;151010.09;5113354;28;20048;-65
2023/04/23 05:11:07;;;;;;;16.73;9.05;;;;;;;14.84;43.69;151015.28;5110862;28;20308;-64
2023/04/23 05:13:32;;;;;;;19.10;8.52;;;;;;;14.88;43.88;151025.59;5124429;28;20060;-62
2023/04/23 05:15:58;;;;;;;15.30;8.13;;;;;;;14.93;43.99;151037.16;5124466;27;20105;-63
2023/04/23 05:18:24;;;;;;;16.73;8.90;;;;;;;14.86;42.36;151019.13;5124564;28;20031;-66
2023/04/23 05:20:50;;;;;;;12.27;7.93;;;;;;;14.80;41.04;151005.00;5124497;28;20196;-64
2023/04/23 05:23:15;;;;;;;15.73;8.73;;;;;;;14.93;41.44;151037.16;5116641;28;20064;-63
2023/04/23 05:25:41;;;;;;;13.07;8.07;;;;;;;14.99;41.97;151052.56;5106868;28;20243;-64
2023/04/23 05:28:07;;;;;;;16.67;8.13;;;;;;;14.92;42.05;151035.88;5124436;28;20028;-63
2023/04/23 05:30:33;;;;;;;9.30;6.07;;;;;;;14.95;41.13;151043.59;5124132;28;20038;-65
2023/04/23 05:32:59;;;;;;;12.75;7.03;;;;;;;15.17;41.23;151097.63;5123947;28;20020;-64
2023/04/23 05:35:24;;;;;;;19.08;7.10;;;;;;;15.21;41.06;151107.94;5105891;28;20069;-65
2023/04/23 05:37:50;;;;;;;15.65;7.60;;;;;;;15.33;40.73;151138.84;5120163;28;20077;-66
2023/04/23 05:40:15;;;;;;;17.85;7.80;;;;;;;15.36;41.32;151145.22;5103737;28;20028;-63
2023/04/23 05:42:41;;;;;;;13.18;7.07;;;;;;;15.32;40.73;151136.25;5123142;28;20033;-64
2023/04/23 05:45:07;;;;;;;9.70;6.25;;;;;;;15.41;39.83;151158.13;5109399;28;20327;-64
2023/04/23 05:47:33;;;;;;;12.68;6.07;;;;;;;15.58;39.47;151200.59;5113430;28;20039;-65
2023/04/23 05:50:01;;;;;;;13.45;5.35;;;;;;;15.57;39.11;151198.00;5088865;28;20049;-63
2023/04/23 05:52:34;;;;;;;10.05;4.97;;;;;;;15.79;39.02;151252.13;5123477;28;20016;-65
2023/04/23 05:55:00;;;;;;;11.13;5.33;;;;;;;16.05;38.64;151319.06;5123536;28;20055;-64
2023/04/23 05:57:25;;;;;;;10.07;4.60;;;;;;;16.14;36.80;151339.69;5105484;28;20513;-62
2023/04/23 05:59:51;;;;;;;9.98;3.47;;;;;;;16.17;36.77;151347.41;5115795;28;20212;-66
2023/04/23 06:02:16;;;;;;;12.02;4.15;;;;;;;17.05;36.71;151567.75;5115927;28;20024;-64
2023/04/23 06:04:42;;;;;;;7.88;3.47;;;;;;;17.06;36.34;151570.34;5105749;28;20122;-65
2023/04/23 06:07:08;;;;;;;8.38;3.95;;;;;;;16.96;35.31;151544.53;5105392;28;20250;-64
2023/04/23 06:09:33;;;;;;;6.35;4.20;;;;;;;17.15;35.68;151592.22;5105087;28;20309;-66
2023/04/23 06:11:59;;;;;;;7.28;4.20;;;;;;;17.40;36.02;151655.34;5116593;28;20027;-65
2023/04/23 06:14:25;;;;;;;7.40;3.70;;;;;;;17.53;35.81;151687.56;5123296;28;20034;-64
2023/04/23 06:16:51;;;;;;;8.68;3.63;;;;;;;17.69;34.92;151728.84;5120922;28;20091;-64
2023/04/23 06:19:16;;;;;;;10.85;4.03;;;;;;;17.98;34.75;151799.81;5122878;28;20019;-65
2023/04/23 06:21:42;;;;;;;6.88;3.85;;;;;;;18.16;33.91;151844.97;5103541;28;20061;-65
2023/04/23 06:24:07;;;;;;;10.90;4.80;;;;;;;18.07;33.55;151824.31;5095508;28;20259;-64
2023/04/23 06:26:33;;;;;;;9.90;3.78;;;;;;;18.07;33.19;151823.00;5102809;28;20024;-65
2023/04/23 06:28:59;;;;;;;7.35;4.10;;;;;;;18.32;33.52;151886.19;5102634;28;20024;-65
2023/04/23 06:31:25;;;;;;;10.95;4.60;;;;;;;18.31;32.95;151883.63;5117609;28;20031;-66
2023/04/23 06:33:51;;;;;;;7.88;3.92;;;;;;;18.30;32.72;151881.06;5086630;28;20205;-66
2023/04/23 06:36:16;;;;;;;7.60;4.15;;;;;;;18.45;33.09;151919.78;5104835;28;20035;-64
2023/04/23 06:38:43;;;;;;;6.95;3.90;;;;;;;18.37;33.61;151897.78;5101401;28;20059;-65
2023/04/23 06:41:10;;;;;;;5.47;3.70;;;;;;;18.50;32.56;151931.38;5102532;28;20083;-65
2023/04/23 06:43:35;;;;;;;9.20;3.97;;;;;;;18.65;33.23;151968.75;5103643;28;20036;-64
2023/04/23 06:46:01;;;;;;;13.43;3.83;;;;;;;18.86;31.95;152020.38;5122965;28;20047;-65
2023/04/23 06:48:27;;;;;;;7.80;3.75;;;;;;;18.71;31.90;151982.94;5105874;28;20400;-65
2023/04/23 06:50:52;;;;;;;6.38;3.90;;;;;;;18.51;32.27;151933.91;5114373;28;20024;-65
2023/04/23 06:53:18;;;;;;;8.18;3.60;;;;;;;18.40;32.37;151906.84;5115447;28;20055;-66
2023/04/23 06:55:44;;;;;;;6.38;3.85;;;;;;;18.68;32.31;151975.22;5104483;28;20035;-66
2023/04/23 06:58:10;;;;;;;12.75;3.83;;;;;;;18.84;32.04;152015.19;5121055;28;20035;-67
2023/04/23 07:00:36;;;;;;;8.80;4.47;;;;;;;18.95;31.53;152043.63;5101834;28;20046;-65
2023/04/23 07:03:01;;;;;;;12.57;3.95;;;;;;;19.03;31.26;152064.28;5121100;28;20027;-66
2023/04/23 07:05:27;;;;;;;11.48;5.25;;;;;;;18.95;31.82;152043.63;5121509;28;20038;-65
2023/04/23 07:07:53;;;;;;;10.38;4.63;;;;;;;18.99;31.15;152052.69;5122541;28;20032;-66
2023/04/23 07:10:18;;;;;;;22.23;5.75;;;;;;;19.24;32.05;152117.19;5108759;28;20023;-65
2023/04/23 07:12:45;;;;;;;11.20;4.82;;;;;;;19.04;31.75;152065.56;5127618;28;20223;-64
2023/04/23 07:15:10;;;;;;;12.32;5.20;;;;;;;19.16;31.36;152095.28;5121625;28;20031;-65
2023/04/23 07:17:36;;;;;;;9.63;4.65;;;;;;;18.99;31.76;152053.97;5128859;27;20046;-64
2023/04/23 07:20:05;;;;;;;7.38;4.75;;;;;;;19.06;31.25;152072.03;5124687;28;20024;-63
2023/04/23 07:22:31;;;;;;;7.68;3.92;;;;;;;19.07;31.15;152073.28;5097395;28;20114;-67
2023/04/23 07:24:57;;;;;;;12.50;4.65;;;;;;;19.13;31.25;152090.09;5129704;28;20041;-67
2023/04/23 07:27:23;;;;;;;8.23;4.68;;;;;;;19.33;31.62;152137.84;5111255;28;20299;-65
2023/04/23 07:29:49;;;;;;;7.95;5.05;;;;;;;19.26;31.67;152121.06;5129602;28;20046;-66
2023/04/23 07:32:15;;;;;;;10.23;5.63;;;;;;;19.30;30.36;152132.66;5129193;28;20072;-66
2023/04/23 07:34:40;;;;;;;9.20;6.15;;;;;;;19.66;30.95;152223.00;5129241;28;20030;-66
2023/04/23 07:37:06;;;;;;;9.45;5.60;;;;;;;19.38;30.33;152152.06;5129210;28;20039;-67
2023/04/23 07:39:32;;;;;;;13.18;6.07;;;;;;;19.38;30.56;152152.06;5107149;28;20088;-67
2023/04/23 07:41:58;;;;;;;9.63;7.07;;;;;;;19.28;30.76;152126.22;5108807;28;20043;-64
2023/04/23 07:44:23;;;;;;;13.65;7.20;;;;;;;19.44;30.88;152166.25;5115865;28;20024;-68
2023/04/23 07:46:49;;;;;;;8.38;5.18;;;;;;;19.82;30.10;152261.78;5126320;28;20020;-67
2023/04/23 07:49:15;;;;;;;10.90;6.13;;;;;;;20.05;31.08;152319.94;5108616;28;20227;-66
2023/04/23 07:51:41;;;;;;;7.20;5.22;;;;;;;20.01;30.44;152309.59;5127834;28;20099;-65
2023/04/23 07:54:08;;;;;;;26.13;16.17;;;;;;;20.29;30.89;152380.56;5115685;28;20324;-66
2023/04/23 07:56:33;;;;;;;15.43;6.82;;;;;;;20.12;29.47;152336.69;5117094;28;20235;-66
2023/04/23 07:58:59;;;;;;;14.23;7.50;;;;;;;20.05;29.94;152319.94;5124765;28;20031;-66
2023/04/23 08:01:25;;;;;;;12.05;7.97;;;;;;;20.00;30.26;152307.00;5108395;28;20035;-67
2023/04/23 08:03:51;;;;;;;10.52;8.65;;;;;;;20.07;29.62;152325.06;5109884;28;20046;-66
2023/04/23 08:06:17;;;;;;;18.25;10.23;;;;;;;20.05;29.58;152319.94;5114038;28;20028;-65
2023/04/23 08:08:43;;;;;;;14.93;10.02;;;;;;;20.05;29.83;152318.59;5118619;28;20082;-67
2023/04/23 08:11:10;;;;;;;11.60;6.72;;;;;;;19.80;28.76;152256.66;5123899;28;20092;-66
2023/04/23 08:13:36;;;;;;;9.77;6.22;;;;;;;19.87;29.18;152273.44;5108820;28;20062;-67
2023/04/23 08:16:01;;;;;;;18.85;9.82;;;;;;;19.82;29.23;152261.78;5127712;28;20189;-64
2023/04/23 08:18:27;;;;;;;9.73;6.38;;;;;;;19.73;28.63;152239.81;5127483;27;20042;-65
2023/04/23 08:20:53;;;;;;;10.82;6.80;;;;;;;19.55;30.39;152194.59;5124589;28;20027;-66
2023/04/23 08:23:19;;;;;;;9.98;6.30;;;;;;;19.75;29.98;152245.00;5118616;28;20309;-65
2023/04/23 08:25:44;;;;;;;8.65;3.05;;;;;;;19.55;28.48;152193.34;5111304;28;20051;-64
2023/04/23 08:28:10;;;;;;;6.32;3.08;;;;;;;19.82;28.83;152263.13;5106658;28;20316;-65
2023/04/23 08:30:36;;;;;;;3.45;2.15;;;;;;;19.79;27.47;152254.06;5124696;28;20653;-67
2023/04/23 08:33:01;;;;;;;11.00;3.03;;;;;;;19.60;27.50;152206.25;5125044;28;20051;-65
2023/04/23 08:35:27;;;;;;;5.32;2.70;;;;;;;19.67;27.59;152225.59;5103414;28;20194;-65
2023/04/23 08:37:53;;;;;;;4.45;2.40;;;;;;;19.61;28.31;152210.13;5113026;28;20115;-67
2023/04/23 08:40:18;;;;;;;28.27;17.73;;;;;;;19.65;28.93;152219.16;5124407;28;20114;-66
2023/04/23 08:42:51;;;;;;;3.17;1.73;;;;;;;19.77;27.48;152248.88;5124912;28;20065;-67
2023/04/23 08:45:17;;;;;;;;;;;;;;;19.20;26.77;152105.59;5124956;28;20034;-68
2023/04/23 08:47:43;;;;;;;5.68;2.42;;;;;;;19.29;28.34;152128.81;5106847;28;19904;-67
2023/04/23 08:50:15;;;;;;;3.28;2.17;;;;;;;19.73;28.41;152239.81;5124803;28;20026;-66
2023/04/23 08:52:49;;;;;;;4.13;2.67;;;;;;;19.77;27.83;152248.88;5124539;28;20031;-68
2023/04/23 08:55:17;;;;;;;3.03;2.22;;;;;;;20.32;27.24;152388.38;5124769;28;20032;-68
2023/04/23 08:57:45;;;;;;;7.57;2.80;;;;;;;20.56;26.80;152447.75;5105742;28;20393;-68
2023/04/23 09:00:12;;;;;;;2.88;1.70;;;;;;;20.37;25.63;152398.69;5124284;28;20091;-68
2023/04/23 09:02:43;;;;;;;2.95;1.58;;;;;;;20.05;26.07;152318.59;5124093;28;20034;-69
2023/04/23 09:05:09;;;;;;;3.83;1.30;;;;;;;19.91;26.69;152283.75;5122140;28;20027;-68
2023/04/23 09:07:35;;;;;;;5.38;1.83;;;;;;;19.60;26.70;152207.53;5124391;28;20218;-69
2023/04/23 09:10:06;;;;;;;2.63;2.20;;;;;;;19.66;26.35;152221.75;5124155;28;20292;-69
2023/04/23 09:12:35;;;;;;;3.28;1.95;;;;;;;19.97;26.38;152299.25;5123317;28;20091;-69
2023/04/23 09:15:09;;;;;;;5.25;2.20;;;;;;;19.94;26.66;152291.53;5111960;28;20024;-70
2023/04/23 09:17:36;;;;;;;3.78;2.05;;;;;;;20.15;26.76;152345.75;5110977;28;20043;-69
2023/04/23 09:20:02;;;;;;;3.83;2.35;;;;;;;20.00;27.41;152307.00;5124505;28;20024;-69
2023/04/23 09:22:46;;;;;;;3.67;2.42;;;;;;;19.93;27.08;152290.19;5123966;28;20047;-68
2023/04/23 09:25:17;;;;;;;5.95;3.17;;;;;;;20.00;27.36;152307.00;5121585;28;20027;-68
2023/04/23 09:27:44;;;;;;;6.75;3.40;;;;;;;19.97;26.99;152299.25;5123773;28;20026;-69
2023/04/23 09:30:10;;;;;;;4.13;2.58;;;;;;;19.74;26.88;152242.41;5124144;28;20024;-68
2023/04/23 09:32:41;;;;;;;6.07;3.78;;;;;;;19.81;27.33;152259.25;5123908;28;20035;-68
2023/04/23 09:35:12;;;;;;;3.05;2.30;;;;;;;19.71;26.93;152233.34;5124111;28;20035;-68
2023/04/23 09:37:41;;;;;;;6.50;2.40;;;;;;;19.52;27.81;152185.59;5123941;28;20047;-69
2023/04/23 09:40:07;;;;;;;7.22;2.88;;;;;;;19.53;27.63;152189.47;5123927;28;20046;-67
2023/04/23 09:42:35;;;;;;;5.40;2.63;;;;;;;19.35;28.41;152143.00;5107477;28;20028;-68
2023/04/23 09:45:06;;;;;;;3.58;2.33;;;;;;;19.48;28.46;152177.84;5103582;28;20081;-69
2023/04/23 09:47:33;;;;;;;55.80;35.05;;;;;;;19.75;27.43;152243.69;5118359;28;20082;-68
2023/04/23 09:49:59;;;;;;;6.68;2.90;;;;;;;19.66;27.53;152223.00;5104674;28;20110;-69
2023/04/23 09:52:25;;;;;;;6.60;2.75;;;;;;;19.63;26.76;152215.28;5123126;28;20036;-70
2023/04/23 09:54:51;;;;;;;3.80;2.15;;;;;;;19.94;27.60;152291.53;5123338;28;20031;-70
2023/04/23 09:57:17;;;;;;;5.85;2.70;;;;;;;20.02;27.74;152312.16;5122572;28;20342;-70
2023/04/23 09:59:45;;;;;;;10.93;2.97;;;;;;;19.92;28.14;152287.59;5102542;28;20023;-72
2023/04/23 10:02:11;;;;;;;3.50;2.30;;;;;;;19.83;26.80;152265.66;5080725;28;20069;-66
2023/04/23 10:04:38;;;;;;;6.28;2.33;;;;;;;19.76;27.45;152247.53;5123317;28;20031;-68
2023/04/23 10:07:07;;;;;;;8.13;3.60;;;;;;;19.79;27.45;152255.34;5103258;28;20036;-66
2023/04/23 10:09:33;;;;;;;5.05;2.42;;;;;;;19.90;27.50;152282.47;5119620;28;20062;-69
2023/04/23 10:12:01;;;;;;;4.93;2.10;;;;;;;19.74;26.75;152242.41;5115490;28;20061;-67
2023/04/23 10:14:28;;;;;;;3.40;2.20;;;;;;;19.62;27.00;152211.41;5109585;28;20091;-66
2023/04/23 10:16:59;;;;;;;5.07;2.55;;;;;;;19.49;27.16;152179.13;5122869;28;20110;-66
2023/04/23 10:19:26;;;;;;;5.55;2.60;;;;;;;19.33;27.56;152139.13;5123066;28;20324;-68
2023/04/23 10:22:00;;;;;;;3.88;2.40;;;;;;;19.43;27.10;152164.94;5123015;28;20039;-66
2023/04/23 10:24:29;;;;;;;4.50;2.35;;;;;;;19.69;27.50;152228.19;5107962;28;20024;-66
2023/04/23 10:26:56;;;;;;;5.80;2.25;;;;;;;19.81;27.27;152259.25;5094464;28;20258;-65
2023/04/23 10:29:27;;;;;;;4.10;2.47;;;;;;;19.91;27.24;152285.06;5120296;28;20028;-66
2023/04/23 10:31:55;;;;;;;6.90;2.77;;;;;;;19.72;27.06;152235.94;5121960;28;20038;-65
2023/04/23 10:34:23;;;;;;;5.60;2.45;;;;;;;19.94;27.90;152291.53;5117913;28;20215;-65
2023/04/23 10:36:50;;;;;;;7.30;2.20;;;;;;;19.83;26.73;152264.38;5117389;28;20208;-64
2023/04/23 10:39:17;;;;;;;4.65;2.22;;;;;;;19.90;27.07;152281.19;5117287;28;20028;-65
2023/04/23 10:41:43;;;;;;;4.70;2.10;;;;;;;19.88;27.19;152277.31;5120804;28;20284;-65
2023/04/23 10:44:15;;;;;;;3.05;2.30;;;;;;;20.05;27.64;152318.59;5117622;28;20035;-64
2023/04/23 10:46:49;;;;;;;;;;;;;;;20.05;27.22;152318.59;5122344;28;20031;-65
2023/04/23 10:49:15;;;;;;;3.47;1.92;;;;;;;20.02;26.88;152312.16;5122469;28;19904;-65
2023/04/23 10:51:44;;;;;;;5.00;2.10;;;;;;;20.20;28.50;152356.09;5121286;28;20214;-66
2023/04/23 10:54:13;;;;;;;7.45;2.10;;;;;;;20.27;27.54;152374.16;5117427;28;20039;-64
2023/04/23 10:56:42;;;;;;;4.72;2.13;;;;;;;20.10;27.52;152332.81;5085617;28;20111;-68
2023/04/23 10:59:20;;;;;;;4.90;2.20;;;;;;;19.95;26.03;152295.41;5104451;28;20120;-66
2023/04/23 11:01:50;;;;;;;4.75;2.30;;;;;;;20.06;27.30;152322.47;5089476;28;20241;-69
2023/04/23 11:04:27;;;;;;;5.97;2.00;;;;;;;19.98;26.61;152301.81;5120121;28;20051;-70
2023/04/23 11:06:55;;;;;;;3.30;2.35;;;;;;;19.88;27.39;152277.31;5107459;28;20054;-68
2023/04/23 11:09:33;;;;;;;6.95;2.30;;;;;;;20.16;28.08;152348.28;5115752;28;20028;-68
2023/04/23 11:12:00;;;;;;;2.28;1.90;;;;;;;19.88;26.46;152277.31;5122452;28;20053;-68
2023/04/23 11:14:33;;;;;;;6.18;2.40;;;;;;;20.11;27.36;152334.09;5111387;28;20032;-68
2023/04/23 11:16:58;;;;;;;6.03;2.40;;;;;;;20.10;26.86;152332.81;5107644;28;20026;-70